createdAt,value
2023-09-13T00:02:10.404Z,64.38
2023-09-13T00:12:14.452Z,64.38
2023-09-13T00:22:18.477Z,65.02
2023-09-13T00:32:23.357Z,65.27
2023-09-13T00:42:29.518Z,65.42
2023-09-13T00:52:34.718Z,66.03
2023-09-13T01:02:42.896Z,66.60
2023-09-13T01:12:47.815Z,67.00
2023-09-13T01:23:20.046Z,67.23
2023-09-13T01:33:24.927Z,67.98
2023-09-13T01:43:29.616Z,68.13
2023-09-13T01:53:33.559Z,68.31
2023-09-13T02:03:37.532Z,68.36
2023-09-13T02:13:41.222Z,68.85
2023-09-13T02:23:45.322Z,69.16
2023-09-13T02:33:50.894Z,69.23
2023-09-13T02:43:54.742Z,69.38
2023-09-13T02:53:58.491Z,68.84
2023-09-13T03:04:03.041Z,69.03
2023-09-13T03:14:07.832Z,70.42
2023-09-13T03:24:12.821Z,70.88
2023-09-13T03:34:17.876Z,71.39
2023-09-13T03:44:21.958Z,69.78
2023-09-13T03:54:26.542Z,69.33
2023-09-13T04:04:31.488Z,69.10
2023-09-13T04:14:35.292Z,68.49
2023-09-13T04:24:39.052Z,68.25
2023-09-13T04:34:42.998Z,68.11
2023-09-13T04:44:47.207Z,67.47
2023-09-13T04:54:52.026Z,67.20
2023-09-13T05:04:55.897Z,66.52
2023-09-13T05:15:00.018Z,65.33
2023-09-13T05:25:05.211Z,64.21
2023-09-13T05:35:12.067Z,63.41
2023-09-13T05:45:15.903Z,62.26
2023-09-13T05:55:19.642Z,61.62
2023-09-13T06:05:23.396Z,61.19
2023-09-13T06:15:27.211Z,60.69
2023-09-13T06:25:31.254Z,59.29
2023-09-13T06:35:38.927Z,58.41
2023-09-13T06:46:00.484Z,56.31
2023-09-13T06:56:09.428Z,53.88
2023-09-13T07:06:14.242Z,52.68
2023-09-13T07:16:18.478Z,51.66
2023-09-13T07:26:23.188Z,50.57
2023-09-13T07:36:29.328Z,50.25
2023-09-13T07:46:33.145Z,50.43
2023-09-13T07:56:38.832Z,50.88
2023-09-13T08:06:42.911Z,51.12
2023-09-13T08:16:47.234Z,51.16
2023-09-13T08:26:51.485Z,50.91
2023-09-13T08:36:57.478Z,50.46
2023-09-13T08:47:03.983Z,49.02
2023-09-13T08:57:07.833Z,46.98
2023-09-13T09:07:12.438Z,45.72
2023-09-13T09:17:18.647Z,44.91
2023-09-13T09:27:22.759Z,44.23
2023-09-13T09:37:31.437Z,43.69
2023-09-13T09:47:40.089Z,43.23
2023-09-13T09:57:48.370Z,43.25
2023-09-13T10:07:56.115Z,42.17
2023-09-13T10:18:04.580Z,41.79
2023-09-13T10:28:10.934Z,40.67
2023-09-13T10:38:22.053Z,39.81
2023-09-13T10:48:27.443Z,38.92
2023-09-13T10:58:31.798Z,38.75
2023-09-13T11:08:36.213Z,37.85
2023-09-13T11:18:50.637Z,37.17
2023-09-13T11:28:55.843Z,37.43
2023-09-13T11:39:07.173Z,37.29
2023-09-13T11:49:35.112Z,36.96
2023-09-13T11:59:46.910Z,36.59
2023-09-13T12:10:00.302Z,37.03
2023-09-13T12:20:07.585Z,37.35
2023-09-13T12:30:20.044Z,37.21
2023-09-13T12:40:28.135Z,36.98
2023-09-13T12:50:35.143Z,36.79
2023-09-13T13:00:50.928Z,37.04
2023-09-13T13:10:57.540Z,36.39
2023-09-13T13:21:08.730Z,35.91
2023-09-13T13:31:17.075Z,35.84
2023-09-13T13:41:22.251Z,36.14
2023-09-13T13:51:28.120Z,36.64
2023-09-13T14:01:33.756Z,36.81
2023-09-13T14:11:41.012Z,37.16
2023-09-13T14:21:55.422Z,37.56
2023-09-13T14:32:03.276Z,37.20
2023-09-13T14:42:07.478Z,36.97
2023-09-13T15:18:05.874Z,39.60
2023-09-13T15:28:09.766Z,40.10
2023-09-13T15:38:13.589Z,40.32
2023-09-13T15:48:19.365Z,40.44
2023-09-13T15:58:23.200Z,40.54
2023-09-13T16:08:26.919Z,40.90
2023-09-13T16:18:32.931Z,41.46
2023-09-13T16:28:36.686Z,42.09
2023-09-13T16:38:40.580Z,42.67
2023-09-13T16:48:44.458Z,43.16
2023-09-13T16:58:48.212Z,43.58
2023-09-13T17:08:52.337Z,44.04
2023-09-13T17:18:56.156Z,47.45
2023-09-13T17:29:05.721Z,51.69
2023-09-13T17:39:13.300Z,54.66
2023-09-13T17:49:20.774Z,56.96
2023-09-13T17:59:25.119Z,56.88
2023-09-13T18:09:29.010Z,56.92
2023-09-13T18:19:32.868Z,56.93
2023-09-13T18:29:38.468Z,57.11
2023-09-13T18:39:43.326Z,56.85
2023-09-13T18:49:47.213Z,56.85
2023-09-13T18:59:51.414Z,58.18
2023-09-13T19:09:55.706Z,58.56
2023-09-13T19:19:59.477Z,58.59
2023-09-13T19:30:03.402Z,58.32
2023-09-13T19:40:09.120Z,57.54
2023-09-13T19:50:13.200Z,58.57
2023-09-13T20:00:17.435Z,60.14
2023-09-13T20:10:22.555Z,61.57
2023-09-13T20:20:30.686Z,63.29
2023-09-13T20:30:35.413Z,63.69
2023-09-13T20:40:39.204Z,64.19
2023-09-13T20:50:43.397Z,64.95
2023-09-13T21:00:47.781Z,65.38
2023-09-13T21:10:53.604Z,66.00
2023-09-13T21:20:59.570Z,66.34
2023-09-13T21:31:05.023Z,66.69
2023-09-13T21:41:10.184Z,67.03
2023-09-13T21:51:14.733Z,67.38
2023-09-13T22:01:19.070Z,68.44
2023-09-13T22:11:26.799Z,68.80
2023-09-13T22:21:30.602Z,69.52
2023-09-13T22:31:34.505Z,70.57
2023-09-13T22:41:45.248Z,71.09
2023-09-13T22:51:50.541Z,71.67
2023-09-13T23:01:54.594Z,72.24
2023-09-13T23:11:58.400Z,72.18
2023-09-13T23:22:04.003Z,71.41
2023-09-13T23:32:07.822Z,70.68
2023-09-13T23:42:12.851Z,70.81
2023-09-13T23:52:16.675Z,71.31
